Time;durP1;ratioP1;P1;durP2;ratioP2;P2;SDS_P1;SDS_P2;PMS_P1;PMS_P2;Temp;Humidity;BMP_temperature;BMP_pressure;BME280_temperature;BME280_humidity;BME280_pressure;Samples;Min_cycle;Max_cycle;Signal;HPM_P1;HPM_P2
2023/04/27 00:00:43;;;;;;;4.67;2.40;;;8.90;98.00;;;;;;5033971;28;20956;-64
2023/04/27 00:03:12;;;;;;;3.70;2.37;;;8.90;98.00;;;;;;5016336;28;20453;-64
2023/04/27 00:05:39;;;;;;;5.57;2.33;;;9.00;98.00;;;;;;5034245;28;20823;-65
2023/04/27 00:08:06;;;;;;;4.87;2.50;;;9.00;98.00;;;;;;5033762;28;20486;-65
2023/04/27 00:10:34;;;;;;;4.30;2.10;;;9.00;98.00;;;;;;5033717;28;20520;-64
2023/04/27 00:13:01;;;;;;;4.33;2.30;;;8.90;98.00;;;;;;5033782;28;20513;-65
2023/04/27 00:15:29;;;;;;;3.17;2.40;;;8.80;98.00;;;;;;5033223;28;20534;-66
2023/04/27 00:17:57;;;;;;;4.53;2.60;;;8.70;98.00;;;;;;5033598;28;20537;-67
2023/04/27 00:20:25;;;;;;;4.80;2.03;;;8.60;98.00;;;;;;5033105;28;20520;-65
2023/04/27 00:22:52;;;;;;;2.77;2.10;;;8.50;98.00;;;;;;5033336;28;20463;-66
2023/04/27 00:25:20;;;;;;;4.07;2.57;;;8.40;98.00;;;;;;5033246;28;20462;-65
2023/04/27 00:27:47;;;;;;;3.07;2.23;;;8.30;98.00;;;;;;5033106;28;20529;-66
2023/04/27 00:30:15;;;;;;;3.53;2.17;;;8.30;98.00;;;;;;5032920;28;20479;-66
2023/04/27 00:32:42;;;;;;;8.70;2.40;;;8.30;98.00;;;;;;5033108;28;20929;-64
2023/04/27 00:35:10;;;;;;;4.10;2.23;;;8.40;98.00;;;;;;5032761;28;20465;-66
2023/04/27 00:37:39;;;;;;;4.67;2.60;;;8.50;98.00;;;;;;5032780;28;20462;-65
2023/04/27 00:40:08;;;;;;;4.63;2.43;;;8.50;98.00;;;;;;5032582;28;20502;-64
2023/04/27 00:42:35;;;;;;;5.63;2.40;;;8.40;98.00;;;;;;5032570;28;20455;-65
2023/04/27 00:45:04;;;;;;;3.27;2.30;;;8.40;98.00;;;;;;5032614;28;20463;-65
2023/04/27 00:47:32;;;;;;;4.47;2.30;;;8.30;98.00;;;;;;5032561;28;20495;-64
2023/04/27 00:50:01;;;;;;;2.70;1.90;;;8.40;98.00;;;;;;5032623;28;20459;-63
2023/04/27 00:52:28;;;;;;;3.73;2.47;;;8.40;98.00;;;;;;5030709;28;20458;-66
2023/04/27 00:54:57;;;;;;;2.77;2.13;;;8.40;98.00;;;;;;5032131;28;20456;-66
2023/04/27 00:57:25;;;;;;;6.77;2.70;;;8.30;98.00;;;;;;5032191;28;20889;-64
2023/04/27 00:59:52;;;;;;;5.57;2.77;;;8.20;98.00;;;;;;5032005;28;20469;-65
2023/04/27 01:02:19;;;;;;;4.53;2.40;;;8.10;98.00;;;;;;5032004;28;20479;-64
2023/04/27 01:04:46;;;;;;;3.90;2.80;;;8.10;98.00;;;;;;5031945;28;20459;-64
2023/04/27 01:07:17;;;;;;;3.67;2.00;;;8.10;98.00;;;;;;5031872;28;20483;-64
2023/04/27 01:09:44;;;;;;;4.80;2.60;;;8.30;98.00;;;;;;5031898;28;20982;-65
2023/04/27 01:12:12;;;;;;;4.23;2.43;;;8.20;98.00;;;;;;5031951;28;20460;-66
2023/04/27 01:14:39;;;;;;;2.37;1.80;;;8.10;98.00;;;;;;5031902;28;20448;-64
2023/04/27 01:17:07;;;;;;;4.00;2.20;;;8.10;98.00;;;;;;5032088;28;20457;-64
2023/04/27 01:19:34;;;;;;;6.03;2.87;;;8.10;98.00;;;;;;5032330;28;20469;-64
2023/04/27 01:22:02;;;;;;;4.20;2.13;;;8.10;98.00;;;;;;5031840;28;20482;-64
2023/04/27 01:24:30;;;;;;;2.57;1.90;;;8.10;98.00;;;;;;5029986;28;20462;-64
2023/04/27 01:26:57;;;;;;;3.27;2.30;;;8.10;98.00;;;;;;5031750;28;20549;-64
2023/04/27 01:29:24;;;;;;;2.87;2.27;;;8.00;98.00;;;;;;5031663;28;20460;-66
2023/04/27 01:31:51;;;;;;;5.00;2.53;;;8.10;98.00;;;;;;5031569;28;20958;-66
2023/04/27 01:34:19;;;;;;;7.10;3.20;;;8.00;98.00;;;;;;5031549;28;20489;-66
2023/04/27 01:36:46;;;;;;;4.87;2.30;;;8.00;98.00;;;;;;5031512;28;20473;-65
2023/04/27 01:39:15;;;;;;;4.63;2.50;;;7.90;98.00;;;;;;5031416;28;20471;-66
2023/04/27 01:41:43;;;;;;;4.10;2.10;;;7.90;98.00;;;;;;5031740;28;20822;-64
2023/04/27 01:44:11;;;;;;;4.37;2.43;;;7.90;98.00;;;;;;5236926;22;20539;-68
2023/04/27 01:46:38;;;;;;;2.63;2.10;;;7.80;98.00;;;;;;5051079;28;20492;-68
2023/04/27 01:49:05;;;;;;;3.73;2.23;;;7.80;98.00;;;;;;5051459;28;20457;-68
2023/04/27 01:51:32;;;;;;;2.33;2.03;;;7.80;98.00;;;;;;5050002;28;20472;-67
2023/04/27 01:54:00;;;;;;;7.53;2.70;;;7.80;98.00;;;;;;5051031;28;20552;-67
2023/04/27 01:56:27;;;;;;;5.53;2.30;;;7.70;98.00;;;;;;5051021;28;20472;-67
2023/04/27 01:58:56;;;;;;;5.17;2.40;;;7.70;98.00;;;;;;5050106;28;21087;-68
2023/04/27 02:01:23;;;;;;;4.70;2.40;;;7.80;98.00;;;;;;5051002;28;20553;-68
2023/04/27 02:03:50;;;;;;;2.60;1.93;;;7.90;98.00;;;;;;5051258;28;20794;-68
2023/04/27 02:06:17;;;;;;;2.57;2.17;;;8.10;98.00;;;;;;5050376;28;20442;-68
2023/04/27 02:08:44;;;;;;;6.13;2.73;;;8.00;98.00;;;;;;5051214;28;20489;-68
2023/04/27 02:11:11;;;;;;;4.33;2.50;;;8.00;98.00;;;;;;5050943;28;20955;-67
2023/04/27 02:13:38;;;;;;;3.97;2.10;;;7.80;98.00;;;;;;5049654;28;20473;-68
2023/04/27 02:16:07;;;;;;;4.67;2.57;;;7.80;98.00;;;;;;5050902;28;20462;-67
2023/04/27 02:18:35;;;;;;;3.93;2.07;;;7.60;98.00;;;;;;5050811;28;20480;-67
2023/04/27 02:21:02;;;;;;;6.27;3.13;;;7.50;98.00;;;;;;5051025;28;20962;-68
2023/04/27 02:23:29;;;;;;;6.30;2.40;;;7.50;98.00;;;;;;5049586;28;20821;-67
2023/04/27 02:25:57;;;;;;;2.47;1.93;;;7.50;98.00;;;;;;5049532;28;20516;-67
2023/04/27 02:28:24;;;;;;;2.90;1.80;;;7.40;98.00;;;;;;5050637;28;20501;-68
2023/04/27 02:30:54;;;;;;;3.80;2.23;;;7.50;98.00;;;;;;5050666;28;20454;-67
2023/04/27 02:33:22;;;;;;;2.93;2.00;;;7.60;98.00;;;;;;5050684;28;20465;-68
2023/04/27 02:35:49;;;;;;;3.80;1.97;;;7.50;98.00;;;;;;5050672;28;20457;-67
2023/04/27 02:38:16;;;;;;;4.37;2.53;;;7.40;98.00;;;;;;5051048;28;20811;-67
2023/04/27 02:40:44;;;;;;;4.50;2.27;;;7.20;98.00;;;;;;5049558;28;20462;-67
2023/04/27 02:43:11;;;;;;;4.03;2.40;;;7.20;98.00;;;;;;5049351;28;20455;-67
2023/04/27 02:45:38;;;;;;;4.50;2.30;;;7.10;98.00;;;;;;5049201;28;20477;-67
2023/04/27 02:48:05;;;;;;;2.60;1.90;;;7.10;98.00;;;;;;5050679;28;20497;-67
2023/04/27 02:50:40;;;;;;;4.27;2.50;;;7.00;98.00;;;;;;5050631;28;20465;-67
2023/04/27 02:53:07;;;;;;;13.83;2.57;;;7.00;98.00;;;;;;5050730;28;20465;-67
2023/04/27 02:55:34;;;;;;;4.43;2.10;;;7.00;98.00;;;;;;5049285;28;20466;-67
2023/04/27 02:58:01;;;;;;;4.50;2.70;;;6.90;98.00;;;;;;5050584;28;20466;-67
2023/04/27 03:00:28;;;;;;;4.10;2.60;;;7.00;98.00;;;;;;5049344;28;20484;-67
2023/04/27 03:02:55;;;;;;;2.87;2.20;;;7.00;98.00;;;;;;5050896;28;20861;-67
2023/04/27 03:05:22;;;;;;;3.47;2.00;;;7.10;98.00;;;;;;5050341;28;20509;-68
2023/04/27 03:07:55;;;;;;;3.90;2.50;;;7.10;98.00;;;;;;5050507;28;20489;-67
2023/04/27 03:10:22;;;;;;;3.63;2.33;;;7.10;98.00;;;;;;5050089;28;20555;-68
2023/04/27 03:13:09;;;;;;;5.00;2.90;;;7.00;98.00;;;;;;5050425;28;20459;-67
2023/04/27 03:15:37;;;;;;;3.87;2.13;;;7.00;98.00;;;;;;5048976;28;20905;-67
2023/04/27 03:18:06;;;;;;;3.47;2.33;;;6.90;98.00;;;;;;5053637;28;20914;-67
2023/04/27 03:20:33;;;;;;;3.33;2.30;;;6.90;98.00;;;;;;5053739;28;20486;-67
2023/04/27 03:23:01;;;;;;;4.77;2.60;;;6.90;98.00;;;;;;5053963;28;20454;-67
2023/04/27 03:25:28;;;;;;;4.10;2.60;;;7.00;98.00;;;;;;5053839;28;20465;-67
2023/04/27 03:27:55;;;;;;;3.90;2.43;;;7.00;98.00;;;;;;5053749;28;20487;-68
2023/04/27 03:30:23;;;;;;;4.20;2.33;;;7.20;98.00;;;;;;5053669;28;20595;-67
2023/04/27 03:32:50;;;;;;;3.37;2.83;;;7.20;98.00;;;;;;5052524;28;20464;-67
2023/04/27 03:35:17;;;;;;;5.13;2.40;;;7.20;98.00;;;;;;5053499;28;20463;-67
2023/04/27 03:37:44;;;;;;;5.50;2.90;;;7.20;98.00;;;;;;5053624;28;20499;-67
2023/04/27 03:40:14;;;;;;;4.23;2.67;;;7.30;98.00;;;;;;5053823;28;20503;-67
2023/04/27 03:42:41;;;;;;;2.13;1.73;;;7.40;98.00;;;;;;5053545;28;20501;-67
2023/04/27 03:45:10;;;;;;;5.50;3.03;;;7.40;98.00;;;;;;5053029;28;20470;-67
2023/04/27 03:47:38;;;;;;;3.77;2.67;;;7.40;98.00;;;;;;5053382;28;20481;-67
2023/04/27 03:50:05;;;;;;;3.03;2.33;;;7.40;98.00;;;;;;5053267;28;20461;-67
2023/04/27 03:52:32;;;;;;;4.23;2.77;;;7.30;98.00;;;;;;5053436;28;21085;-68
2023/04/27 03:55:01;;;;;;;5.77;2.43;;;7.20;98.00;;;;;;5053502;28;20485;-67
2023/04/27 03:57:29;;;;;;;4.43;2.60;;;7.20;98.00;;;;;;5053348;28;20461;-67
2023/04/27 03:59:57;;;;;;;3.67;2.60;;;7.20;98.00;;;;;;5053401;28;20447;-67
2023/04/27 04:02:24;;;;;;;7.50;2.50;;;7.10;98.00;;;;;;5052984;28;20455;-67
2023/04/27 04:04:51;;;;;;;3.20;2.30;;;7.10;98.00;;;;;;5053117;28;20455;-67
2023/04/27 04:07:19;;;;;;;4.30;2.50;;;7.10;98.00;;;;;;5053034;28;20457;-68
2023/04/27 04:09:46;;;;;;;3.83;2.47;;;7.20;98.00;;;;;;5053045;28;20543;-67
2023/04/27 04:12:14;;;;;;;4.90;2.50;;;7.20;98.00;;;;;;5051720;28;20455;-67
2023/04/27 04:14:42;;;;;;;2.70;1.93;;;7.10;98.00;;;;;;5052933;28;20473;-67
2023/04/27 04:17:17;;;;;;;3.97;2.33;;;7.20;98.00;;;;;;5053074;28;20461;-67
2023/04/27 04:19:44;;;;;;;4.80;2.63;;;7.20;98.00;;;;;;5052759;28;20453;-68
2023/04/27 04:22:12;;;;;;;3.47;1.80;;;7.20;98.00;;;;;;5052693;28;20960;-67
2023/04/27 04:24:39;;;;;;;3.67;2.43;;;7.40;98.00;;;;;;5051628;28;20799;-67
2023/04/27 04:27:07;;;;;;;3.30;2.27;;;7.50;98.00;;;;;;5052609;28;20549;-68
2023/04/27 04:29:34;;;;;;;3.20;2.13;;;7.60;98.00;;;;;;5051343;28;20501;-67
2023/04/27 04:32:03;;;;;;;3.43;2.23;;;7.60;98.00;;;;;;5052683;28;20452;-67
2023/04/27 04:34:30;;;;;;;4.60;2.53;;;7.60;98.00;;;;;;5051002;28;20458;-67
2023/04/27 04:36:57;;;;;;;4.30;2.70;;;7.50;98.00;;;;;;5052639;28;20503;-67
2023/04/27 04:39:25;;;;;;;3.40;2.27;;;7.70;98.00;;;;;;5052177;28;20970;-66
2023/04/27 04:41:52;;;;;;;3.20;2.20;;;7.80;98.00;;;;;;5052247;28;20454;-67
2023/04/27 04:44:20;;;;;;;3.33;2.40;;;7.80;98.00;;;;;;5052472;28;20464;-67
2023/04/27 04:46:47;;;;;;;4.03;2.87;;;7.90;98.00;;;;;;5052145;28;20461;-67
2023/04/27 04:49:16;;;;;;;15.60;2.97;;;7.80;98.00;;;;;;5052241;28;20555;-67
2023/04/27 04:51:43;;;;;;;3.27;2.40;;;7.80;98.00;;;;;;5052733;28;20465;-67
2023/04/27 04:54:11;;;;;;;3.37;1.77;;;7.90;98.00;;;;;;5052383;28;20519;-67
2023/04/27 04:56:38;;;;;;;4.77;2.70;;;7.80;98.00;;;;;;5052204;28;20742;-67
2023/04/27 04:59:05;;;;;;;4.17;2.63;;;7.80;98.00;;;;;;5052150;28;20469;-67
2023/04/27 05:01:32;;;;;;;3.03;2.27;;;7.90;98.00;;;;;;5052033;28;20461;-67
2023/04/27 05:04:00;;;;;;;2.60;2.07;;;7.90;98.00;;;;;;5052182;28;20459;-67
2023/04/27 05:06:29;;;;;;;6.40;3.10;;;7.90;98.00;;;;;;5051919;28;20444;-67
2023/04/27 05:08:56;;;;;;;5.73;3.10;;;7.90;98.00;;;;;;5051989;28;20583;-68
2023/04/27 05:11:24;;;;;;;6.23;2.80;;;8.00;98.00;;;;;;5051517;28;20554;-67
2023/04/27 05:13:50;;;;;;;4.93;2.70;;;8.10;98.00;;;;;;5051829;28;20470;-67
2023/04/27 05:16:17;;;;;;;4.13;2.73;;;8.20;98.00;;;;;;5051339;28;20456;-67
2023/04/27 05:18:45;;;;;;;4.97;2.50;;;8.10;98.00;;;;;;5051794;28;20814;-67
2023/04/27 05:21:16;;;;;;;2.70;2.00;;;8.30;98.00;;;;;;5050511;28;20865;-67
2023/04/27 05:23:45;;;;;;;3.13;2.43;;;8.50;98.00;;;;;;5051755;28;20467;-67
2023/04/27 05:26:13;;;;;;;8.13;2.93;;;8.40;98.00;;;;;;5051579;28;20460;-67
2023/04/27 05:28:40;;;;;;;4.70;2.80;;;8.30;98.00;;;;;;5051749;28;20486;-67
2023/04/27 05:31:09;;;;;;;3.43;2.40;;;8.30;98.00;;;;;;5051838;28;20454;-67
2023/04/27 05:33:36;;;;;;;5.37;2.67;;;8.30;98.00;;;;;;5051863;28;20454;-67
2023/04/27 05:36:03;;;;;;;4.40;2.70;;;8.30;98.00;;;;;;5051563;28;20968;-67
2023/04/27 05:38:32;;;;;;;5.00;2.80;;;8.50;98.00;;;;;;5051581;28;20961;-67
2023/04/27 05:41:00;;;;;;;7.03;2.60;;;8.70;98.00;;;;;;5051441;28;20449;-67
2023/04/27 05:43:27;;;;;;;4.27;2.40;;;8.80;98.00;;;;;;5051569;28;20457;-67
2023/04/27 05:45:54;;;;;;;3.40;2.33;;;8.80;98.00;;;;;;5051282;28;20469;-67
2023/04/27 05:48:25;;;;;;;4.10;2.57;;;9.00;98.00;;;;;;5051539;28;20899;-67
2023/04/27 05:51:00;;;;;;;4.83;2.47;;;8.90;98.00;;;;;;5050408;28;20466;-67
2023/04/27 05:53:28;;;;;;;5.50;2.90;;;9.00;98.00;;;;;;5051470;28;20540;-68
2023/04/27 05:55:55;;;;;;;4.20;2.53;;;9.00;98.00;;;;;;5051263;28;20466;-67
2023/04/27 05:58:23;;;;;;;4.80;2.90;;;9.00;98.00;;;;;;5050092;28;20456;-67
2023/04/27 06:00:51;;;;;;;3.90;2.30;;;9.00;98.00;;;;;;5051285;28;20465;-63
2023/04/27 06:03:18;;;;;;;4.60;2.87;;;9.20;98.00;;;;;;5051202;28;20567;-62
2023/04/27 06:05:45;;;;;;;4.67;2.80;;;9.30;98.00;;;;;;5051347;28;20464;-62
2023/04/27 06:08:12;;;;;;;6.50;3.27;;;9.30;98.00;;;;;;5051487;28;20453;-63
2023/04/27 06:10:40;;;;;;;4.80;2.80;;;9.40;98.00;;;;;;5049870;28;20457;-62
2023/04/27 06:13:07;;;;;;;4.23;2.97;;;9.40;98.00;;;;;;5050581;28;20533;-63
2023/04/27 06:15:35;;;;;;;5.70;2.83;;;9.50;98.00;;;;;;5050935;28;20462;-63
2023/04/27 06:18:03;;;;;;;17.83;3.17;;;9.50;98.00;;;;;;5050993;28;20515;-62
2023/04/27 06:20:30;;;;;;;6.63;3.40;;;9.50;98.00;;;;;;5049774;28;20466;-63
2023/04/27 06:22:58;;;;;;;5.77;2.90;;;9.50;98.00;;;;;;5051079;28;20964;-62
2023/04/27 06:25:27;;;;;;;4.40;2.80;;;9.70;98.00;;;;;;5050881;28;20461;-62
2023/04/27 06:27:55;;;;;;;4.93;2.83;;;9.70;98.00;;;;;;5049662;28;20962;-63
2023/04/27 06:30:22;;;;;;;4.70;3.00;;;9.70;98.00;;;;;;5049645;28;20488;-63
2023/04/27 06:32:52;;;;;;;4.60;2.80;;;9.70;98.00;;;;;;5050861;28;20456;-63
2023/04/27 06:35:20;;;;;;;4.90;2.90;;;9.70;98.00;;;;;;5050801;28;20462;-63
2023/04/27 06:37:47;;;;;;;12.10;3.40;;;9.80;98.00;;;;;;5049759;28;20454;-63
2023/04/27 06:40:14;;;;;;;8.70;3.90;;;9.90;98.00;;;;;;5050832;28;20473;-63
2023/04/27 06:42:41;;;;;;;6.93;2.83;;;9.90;98.00;;;;;;5050888;28;20454;-63
2023/04/27 06:45:09;;;;;;;6.77;3.20;;;10.10;98.00;;;;;;5050776;28;20470;-63
2023/04/27 06:47:36;;;;;;;7.83;3.20;;;10.10;98.00;;;;;;5051121;28;20852;-63
2023/04/27 06:50:05;;;;;;;3.60;2.53;;;10.10;98.00;;;;;;5050710;28;20508;-63
2023/04/27 06:52:32;;;;;;;6.43;3.40;;;10.20;98.00;;;;;;5052105;28;20870;-63
2023/04/27 06:55:07;;;;;;;6.57;3.23;;;10.10;98.00;;;;;;5054656;28;20488;-63
2023/04/27 06:57:34;;;;;;;4.50;2.80;;;10.30;98.00;;;;;;5053715;28;20597;-63
2023/04/27 07:00:03;;;;;;;5.53;3.07;;;10.60;98.00;;;;;;5054676;28;20496;-63
2023/04/27 07:02:31;;;;;;;6.60;3.17;;;10.70;98.00;;;;;;5054586;28;20516;-63
2023/04/27 07:04:58;;;;;;;4.57;2.70;;;10.90;98.00;;;;;;5054299;28;20510;-63
2023/04/27 07:07:26;;;;;;;4.40;2.73;;;11.00;98.00;;;;;;5054591;28;20466;-63
2023/04/27 07:09:53;;;;;;;5.73;3.47;;;11.20;98.00;;;;;;5053210;28;20543;-64
2023/04/27 07:12:20;;;;;;;6.00;3.00;;;11.30;98.00;;;;;;5054074;28;21042;-63
2023/04/27 07:14:49;;;;;;;7.57;3.30;;;11.30;98.00;;;;;;5054285;28;20458;-63
2023/04/27 07:17:17;;;;;;;8.90;3.90;;;11.40;98.00;;;;;;5054064;28;20489;-63
2023/04/27 07:19:45;;;;;;;7.60;4.13;;;11.50;98.00;;;;;;5053980;28;20466;-63
2023/04/27 07:22:14;;;;;;;7.87;3.47;;;11.50;98.00;;;;;;5053255;28;20460;-63
2023/04/27 07:24:43;;;;;;;6.93;2.70;;;11.60;98.00;;;;;;5053110;28;20462;-63
2023/04/27 07:27:10;;;;;;;11.83;3.73;;;11.60;98.00;;;;;;5053964;28;20523;-63
2023/04/27 07:29:44;;;;;;;4.80;3.10;;;11.70;98.00;;;;;;5053955;28;21063;-63
2023/04/27 07:32:11;;;;;;;6.83;3.70;;;11.80;98.00;;;;;;5054886;28;20454;-63
2023/04/27 07:34:39;;;;;;;7.57;3.43;;;11.90;98.00;;;;;;5054791;28;20461;-63
2023/04/27 07:37:07;;;;;;;8.00;3.20;;;12.00;98.00;;;;;;5054488;28;20849;-63
2023/04/27 07:39:35;;;;;;;5.20;3.20;;;12.00;98.00;;;;;;5054828;28;20481;-63
2023/04/27 07:42:05;;;;;;;5.93;3.30;;;12.00;98.00;;;;;;5053892;28;20813;-63
2023/04/27 07:44:32;;;;;;;7.50;3.40;;;12.20;98.00;;;;;;5053974;28;20505;-63
2023/04/27 07:46:59;;;;;;;6.23;3.50;;;12.10;98.00;;;;;;5053905;28;20553;-63
2023/04/27 07:49:27;;;;;;;6.03;3.67;;;12.10;98.00;;;;;;5053681;28;20489;-63
2023/04/27 07:51:55;;;;;;;5.77;3.47;;;12.20;98.00;;;;;;5053605;28;20530;-63
2023/04/27 07:54:22;;;;;;;12.27;3.67;;;12.50;98.00;;;;;;5053651;28;20461;-63
2023/04/27 07:56:56;;;;;;;5.23;3.40;;;12.70;98.00;;;;;;5053614;28;20458;-63
2023/04/27 07:59:28;;;;;;;5.87;2.97;;;12.70;98.00;;;;;;5053505;28;20455;-63
2023/04/27 08:01:56;;;;;;;7.13;3.80;;;12.80;98.00;;;;;;5052697;28;20465;-63
2023/04/27 08:04:23;;;;;;;9.00;3.67;;;12.80;98.00;;;;;;5034090;28;20518;-63
2023/04/27 08:06:50;;;;;;;5.77;3.30;;;13.00;98.00;;;;;;5053439;28;20501;-63
2023/04/27 08:09:17;;;;;;;5.27;3.10;;;13.30;98.00;;;;;;5053267;28;20527;-63
2023/04/27 08:11:44;;;;;;;6.27;2.77;;;13.50;98.00;;;;;;5053168;28;20518;-63
2023/04/27 08:14:12;;;;;;;5.77;3.40;;;13.60;98.00;;;;;;5053058;28;20554;-63
2023/04/27 08:16:42;;;;;;;7.03;2.70;;;13.70;98.00;;;;;;5053030;28;20969;-63
2023/04/27 08:19:10;;;;;;;5.17;3.07;;;13.90;98.00;;;;;;5053785;28;20461;-63
2023/04/27 08:21:38;;;;;;;6.20;2.87;;;14.00;98.00;;;;;;5053819;28;20926;-63
2023/04/27 08:24:06;;;;;;;5.83;2.90;;;14.10;98.00;;;;;;5052425;28;20802;-62
2023/04/27 08:26:34;;;;;;;6.27;2.67;;;14.30;98.00;;;;;;5053260;28;20795;-63
2023/04/27 08:29:01;;;;;;;4.97;2.43;;;14.40;98.00;;;;;;5053515;28;20469;-62
2023/04/27 08:31:28;;;;;;;4.13;2.90;;;14.60;98.00;;;;;;5053590;28;20464;-62
2023/04/27 08:33:58;;;;;;;5.73;2.87;;;14.70;98.00;;;;;;5053467;28;20464;-63
2023/04/27 08:36:27;;;;;;;6.13;3.03;;;14.80;98.00;;;;;;5053370;28;20549;-62
2023/04/27 08:38:54;;;;;;;4.07;2.40;;;14.80;98.00;;;;;;5052194;28;20459;-62
2023/04/27 08:41:22;;;;;;;5.30;2.63;;;14.90;98.00;;;;;;5053210;28;20463;-63
2023/04/27 08:43:50;;;;;;;6.03;2.87;;;15.00;98.00;;;;;;5053339;28;20491;-63
2023/04/27 08:46:21;;;;;;;3.73;2.37;;;15.00;98.00;;;;;;5053155;28;20471;-63
2023/04/27 08:48:51;;;;;;;3.83;2.37;;;15.20;98.00;;;;;;5053392;28;20449;-62
2023/04/27 08:51:20;;;;;;;4.70;2.90;;;15.40;98.00;;;;;;5052942;28;20502;-63
2023/04/27 08:53:50;;;;;;;4.97;2.93;;;15.50;98.00;;;;;;5053221;28;20460;-63
2023/04/27 08:56:17;;;;;;;3.70;2.50;;;15.50;97.10;;;;;;5052998;28;21036;-62
2023/04/27 08:58:45;;;;;;;6.50;3.10;;;15.60;97.00;;;;;;5053025;28;20965;-61
2023/04/27 09:01:12;;;;;;;3.23;2.30;;;15.70;95.90;;;;;;5053100;28;20890;-61
2023/04/27 09:03:39;;;;;;;4.03;2.53;;;15.80;96.50;;;;;;5053090;28;20453;-61
2023/04/27 09:06:07;;;;;;;6.27;2.83;;;15.90;95.90;;;;;;5052853;28;20544;-61
2023/04/27 09:08:46;;;;;;;4.37;2.80;;;15.90;97.40;;;;;;5052865;28;20944;-61
2023/04/27 09:11:14;;;;;;;5.13;2.60;;;16.10;97.90;;;;;;5052861;28;20491;-61
2023/04/27 09:13:44;;;;;;;4.30;3.00;;;16.20;95.50;;;;;;5052814;28;20943;-61
2023/04/27 09:16:12;;;;;;;4.70;2.60;;;16.30;94.00;;;;;;5052465;28;20465;-61
2023/04/27 09:18:42;;;;;;;5.20;2.60;;;16.50;92.80;;;;;;5053113;28;20526;-62
2023/04/27 09:21:11;;;;;;;4.50;2.77;;;16.70;93.30;;;;;;5052740;28;20461;-61
2023/04/27 09:23:39;;;;;;;7.50;3.50;;;16.90;92.90;;;;;;5052303;28;20469;-63
2023/04/27 09:26:08;;;;;;;5.97;3.00;;;17.00;93.80;;;;;;5051854;28;20449;-63
2023/04/27 09:28:39;;;;;;;5.20;2.87;;;17.00;95.30;;;;;;5052078;28;20457;-63
2023/04/27 09:31:08;;;;;;;3.40;2.23;;;17.10;95.90;;;;;;5051706;28;20520;-63
2023/04/27 09:33:36;;;;;;;5.10;2.67;;;17.20;92.20;;;;;;5050579;28;20462;-63
2023/04/27 09:36:05;;;;;;;4.90;3.00;;;17.30;91.00;;;;;;5051876;28;20460;-63
2023/04/27 09:38:33;;;;;;;5.10;3.30;;;17.30;92.30;;;;;;5051715;28;21001;-63
2023/04/27 09:41:00;;;;;;;5.70;3.20;;;17.30;92.10;;;;;;5051605;28;20462;-63
2023/04/27 09:43:32;;;;;;;5.27;3.00;;;17.40;88.90;;;;;;5051544;28;20462;-63
2023/04/27 09:45:59;;;;;;;5.90;3.27;;;17.40;92.40;;;;;;5051488;28;20490;-64
2023/04/27 09:48:29;;;;;;;5.53;3.00;;;17.50;90.70;;;;;;5051392;28;20852;-64
2023/04/27 09:50:56;;;;;;;5.27;3.17;;;17.60;92.10;;;;;;5051390;28;20485;-64
2023/04/27 09:53:29;;;;;;;8.43;3.30;;;17.70;88.20;;;;;;5051260;28;20450;-64
2023/04/27 09:56:09;;;;;;;4.00;2.70;;;17.70;90.80;;;;;;5051320;28;20484;-64
2023/04/27 09:59:05;;;;;;;5.47;3.00;;;17.80;89.30;;;;;;5051363;28;20497;-64
2023/04/27 10:01:39;;;;;;;4.97;3.00;;;18.00;89.50;;;;;;5051214;28;20940;-64
2023/04/27 10:04:21;;;;;;;6.43;2.90;;;18.10;88.80;;;;;;5050016;28;20493;-64
2023/04/27 10:06:58;;;;;;;5.00;2.77;;;18.20;87.20;;;;;;5051412;28;20469;-64
2023/04/27 10:09:26;;;;;;;4.47;2.90;;;18.20;88.60;;;;;;5051259;28;20497;-64
2023/04/27 10:11:55;;;;;;;3.57;2.43;;;18.30;85.70;;;;;;5050972;28;20457;-64
2023/04/27 10:14:24;;;;;;;3.93;2.67;;;18.30;86.90;;;;;;5051045;28;20458;-64
2023/04/27 10:16:55;;;;;;;4.67;2.80;;;18.30;85.80;;;;;;5050912;28;20463;-64
2023/04/27 10:19:23;;;;;;;5.40;3.10;;;18.50;86.90;;;;;;5051161;28;20884;-64
2023/04/27 10:21:59;;;;;;;10.03;2.40;;;18.60;88.30;;;;;;5050924;28;20457;-64
2023/04/27 10:24:36;;;;;;;3.57;2.67;;;18.70;85.90;;;;;;5051249;28;20460;-64
2023/04/27 10:27:07;;;;;;;5.47;2.53;;;19.00;85.50;;;;;;5052823;28;20493;-64
2023/04/27 10:29:40;;;;;;;3.90;2.43;;;19.10;86.40;;;;;;5055413;28;20457;-64
2023/04/27 10:32:09;;;;;;;4.30;2.53;;;19.30;88.80;;;;;;5055430;28;20494;-64
2023/04/27 10:34:38;;;;;;;3.40;2.57;;;19.40;87.00;;;;;;5055260;28;20875;-64
2023/04/27 10:37:06;;;;;;;4.00;2.80;;;19.40;86.80;;;;;;5054809;28;20874;-64
2023/04/27 10:39:36;;;;;;;4.90;2.87;;;19.50;85.40;;;;;;5055009;28;20481;-64
2023/04/27 10:42:04;;;;;;;3.67;2.63;;;19.50;85.30;;;;;;5055049;28;20545;-64
2023/04/27 10:44:32;;;;;;;5.20;2.77;;;19.50;81.20;;;;;;5054817;28;20488;-64
2023/04/27 10:47:02;;;;;;;4.53;3.00;;;19.60;83.10;;;;;;5054727;28;20524;-64
2023/04/27 10:49:32;;;;;;;4.13;2.60;;;19.50;79.90;;;;;;5054764;28;20866;-64
2023/04/27 10:52:03;;;;;;;4.03;2.60;;;19.40;81.60;;;;;;5054570;28;20464;-64
2023/04/27 10:54:31;;;;;;;8.07;2.97;;;19.30;80.30;;;;;;5055182;28;20469;-64
2023/04/27 10:57:04;;;;;;;7.60;2.80;;;19.30;83.20;;;;;;5054651;28;20959;-64
2023/04/27 10:59:31;;;;;;;3.87;2.67;;;19.50;85.30;;;;;;5055050;28;20450;-64
2023/04/27 11:01:58;;;;;;;5.87;3.03;;;19.70;85.40;;;;;;5055154;28;20545;-64
2023/04/27 11:04:37;;;;;;;2.67;2.20;;;19.90;79.90;;;;;;5055235;28;20961;-64
2023/04/27 11:07:04;;;;;;;3.30;2.30;;;20.00;82.20;;;;;;5055451;28;20488;-64
2023/04/27 11:09:32;;;;;;;4.20;2.40;;;20.20;76.40;;;;;;5054492;28;20458;-64
2023/04/27 11:11:59;;;;;;;3.20;2.30;;;20.40;77.60;;;;;;5055225;28;20458;-64
2023/04/27 11:14:26;;;;;;;4.50;2.80;;;20.50;75.50;;;;;;5055394;28;20457;-64
2023/04/27 11:16:53;;;;;;;3.63;2.33;;;20.60;77.50;;;;;;5055295;28;20456;-64
2023/04/27 11:19:20;;;;;;;6.50;2.40;;;20.70;74.50;;;;;;5054756;28;20461;-64
2023/04/27 11:21:49;;;;;;;4.20;2.47;;;20.80;74.40;;;;;;5053149;28;20505;-64
2023/04/27 11:24:16;;;;;;;3.50;2.30;;;20.90;75.70;;;;;;5054110;28;20487;-64
2023/04/27 11:26:43;;;;;;;6.73;2.80;;;21.20;79.00;;;;;;5053630;28;20461;-64
2023/04/27 11:29:12;;;;;;;4.73;2.23;;;21.10;73.80;;;;;;5054290;28;20851;-64
2023/04/27 11:31:42;;;;;;;3.57;2.53;;;21.50;76.40;;;;;;5054121;28;20543;-64
2023/04/27 11:34:09;;;;;;;5.30;2.70;;;21.70;74.10;;;;;;5052776;28;20508;-64
2023/04/27 11:36:36;;;;;;;4.60;2.37;;;21.60;71.90;;;;;;5054001;28;20825;-64
2023/04/27 11:39:06;;;;;;;5.30;2.57;;;21.50;73.60;;;;;;5053502;28;20552;-64
2023/04/27 11:41:45;;;;;;;4.67;2.70;;;21.40;70.90;;;;;;5053890;28;21033;-64
2023/04/27 11:44:12;;;;;;;5.10;2.90;;;21.30;72.30;;;;;;5053607;28;20468;-64
2023/04/27 11:46:41;;;;;;;4.10;2.70;;;21.40;71.70;;;;;;5053794;28;20454;-64
2023/04/27 11:49:08;;;;;;;4.30;2.67;;;21.40;71.70;;;;;;5053879;28;20667;-64
2023/04/27 11:51:36;;;;;;;4.30;2.37;;;21.60;74.00;;;;;;5053515;28;20524;-64
2023/04/27 11:54:06;;;;;;;4.03;2.83;;;22.00;74.50;;;;;;5053565;28;20454;-64
2023/04/27 11:56:36;;;;;;;4.77;2.67;;;22.40;72.40;;;;;;5053432;28;20473;-64
2023/04/27 11:59:04;;;;;;;3.80;2.57;;;22.60;74.00;;;;;;5052349;28;20507;-64
2023/04/27 12:01:33;;;;;;;3.90;2.50;;;22.60;72.90;;;;;;5053487;28;20477;-65
2023/04/27 12:04:00;;;;;;;4.20;2.80;;;22.80;72.90;;;;;;5053406;28;20461;-64
2023/04/27 12:06:29;;;;;;;4.20;2.73;;;22.10;72.20;;;;;;5035908;28;20464;-64
2023/04/27 12:08:57;;;;;;;4.00;2.83;;;22.50;73.40;;;;;;5053489;28;20963;-64
2023/04/27 12:11:26;;;;;;;2.20;1.90;;;22.50;72.00;;;;;;5052951;28;20578;-64
2023/04/27 12:13:53;;;;;;;4.70;2.77;;;22.70;72.10;;;;;;5053579;28;20496;-64
2023/04/27 12:16:21;;;;;;;3.60;2.37;;;22.50;72.80;;;;;;5053430;28;20458;-65
2023/04/27 12:18:49;;;;;;;5.33;2.30;;;22.50;71.40;;;;;;5053374;28;20883;-64
2023/04/27 12:21:16;;;;;;;4.57;2.83;;;22.60;73.30;;;;;;5053323;28;20489;-64
2023/04/27 12:23:43;;;;;;;5.43;2.60;;;23.00;74.60;;;;;;5051936;28;20489;-64
2023/04/27 12:26:11;;;;;;;3.20;2.20;;;23.20;72.80;;;;;;5052169;28;20481;-64
2023/04/27 12:28:40;;;;;;;4.47;2.63;;;23.10;76.10;;;;;;5051771;28;20464;-64
2023/04/27 12:31:07;;;;;;;2.83;2.27;;;23.20;71.90;;;;;;5052769;28;20488;-64
2023/04/27 12:33:34;;;;;;;3.57;2.67;;;23.30;70.80;;;;;;5053159;28;20464;-64
2023/04/27 12:36:01;;;;;;;3.60;2.30;;;23.40;73.30;;;;;;5052906;28;20764;-64
2023/04/27 12:38:28;;;;;;;6.53;2.80;;;23.80;73.10;;;;;;5052846;28;20457;-64
2023/04/27 12:40:55;;;;;;;4.63;2.67;;;23.70;71.20;;;;;;5052795;28;20454;-64
2023/04/27 12:43:22;;;;;;;4.47;2.50;;;23.20;72.10;;;;;;5052672;28;20457;-64
2023/04/27 12:45:51;;;;;;;4.70;2.47;;;22.80;72.50;;;;;;5051153;28;21014;-64
2023/04/27 12:48:18;;;;;;;3.77;2.60;;;22.90;74.80;;;;;;5052562;28;20454;-65
2023/04/27 12:50:46;;;;;;;3.97;2.53;;;23.20;73.40;;;;;;5051948;28;20486;-64
2023/04/27 12:53:13;;;;;;;5.53;2.90;;;23.60;73.50;;;;;;5051323;28;20632;-64
2023/04/27 12:55:40;;;;;;;5.07;2.37;;;23.60;68.80;;;;;;5052426;28;20458;-64
2023/04/27 12:58:07;;;;;;;4.67;2.67;;;23.50;70.40;;;;;;5051313;28;20461;-65